»·PEaware :: N107J KHTH-O09

N107J :: KHTH-O09

FLIGHT INFORMATION

Flight Status: Arrived
Operator: Privately registered:
United States
More flights under this callsign
Pilot: Jason C. (16469)
Aircraft: SOCATA TBM-900
(TBM9)
More flights by this aircraft type
Origin: KHTH Hawthorne Mun
United States
Destination: O09 Round Valley
United States
More flights between these airports :: More routes between these airports
Route: +JITIM
File this flight plan on PilotEdge
Remarks: RMK / SIMBRIEF - FSECONOMY ZMAAIRTCC
Altitude:
(Current/Filed)
26,000ft
Speed:
(Current/Filed)
313kts
Departed: 14-Jul-20 03:43 PM
Arrived: 14-Jul-20 04:51 PM
Distance/Time
Traveled:
228nm/1:08
Distance/Time
To Go:
Arrived

Flight Plot

Page will automatically refresh every two minutes.

Flight plan parsing failed; only flown route is shown


Map Options




Map Legend


Flown Route
Filed Route
Departure Airport
Arrival Airport
Navaid (VOR, NDB)
Fix

Horizontal Profiles

Position Reports

Time Latitude Longitude Heading Altitude Ground
Speed
14-Jul-20 15:22 38.537834 -118.628776 0 4242ft 0kts
14-Jul-20 15:23 38.537834 -118.628776 160 4242ft 0kts
14-Jul-20 15:24 38.537834 -118.628776 160 4242ft 0kts
14-Jul-20 15:25 38.537834 -118.628776 160 4242ft 0kts
14-Jul-20 15:26 38.537834 -118.628776 160 4242ft 0kts
14-Jul-20 15:27 38.537834 -118.628776 160 4242ft 0kts
14-Jul-20 15:28 38.537834 -118.628776 160 4242ft 0kts
14-Jul-20 15:29 38.537834 -118.628776 160 4242ft 0kts
14-Jul-20 15:30 38.537834 -118.628776 160 4242ft 0kts
14-Jul-20 15:31 38.537834 -118.628776 160 4242ft 0kts
14-Jul-20 15:32 38.537834 -118.628776 160 4242ft 0kts
14-Jul-20 15:33 38.537834 -118.628776 160 4242ft 0kts
14-Jul-20 15:34 38.537834 -118.628776 160 4242ft 0kts
14-Jul-20 15:35 38.537834 -118.628776 160 4242ft 0kts
14-Jul-20 15:36 38.537834 -118.628776 160 4242ft 0kts
14-Jul-20 15:37 38.537834 -118.628776 160 4242ft 0kts
14-Jul-20 15:37 38.537739 -118.628692 131 4242ft 3kts
14-Jul-20 15:39 38.538553 -118.626734 66 4235ft 14kts
14-Jul-20 15:40 38.539909 -118.624205 23 4224ft 0kts
14-Jul-20 15:40 38.539909 -118.624205 23 4224ft 0kts
14-Jul-20 15:42 38.540434 -118.624131 305 4223ft 9kts
14-Jul-20 15:42 38.544921 -118.635800 296 4325ft 114kts
14-Jul-20 15:43 38.568804 -118.654693 35 6090ft 127kts
14-Jul-20 15:44 38.554415 -118.627959 214 7800ft 143kts
14-Jul-20 15:45 38.566018 -118.656133 15 9594ft 138kts
14-Jul-20 15:46 38.561604 -118.609170 112 11158ft 172kts
14-Jul-20 15:47 38.548287 -118.550855 77 12957ft 170kts
14-Jul-20 15:48 38.550189 -118.489503 74 14647ft 179kts
14-Jul-20 15:49 38.563483 -118.439157 344 16294ft 128kts
14-Jul-20 15:50 38.580719 -118.479084 315 18163ft 131kts
14-Jul-20 15:51 38.605839 -118.512268 320 20112ft 132kts
14-Jul-20 15:52 38.633038 -118.544898 320 22034ft 138kts
14-Jul-20 15:53 38.661058 -118.578370 320 23985ft 141kts
14-Jul-20 15:54 38.690272 -118.613304 319 25692ft 147kts
14-Jul-20 15:55 38.725462 -118.655411 318 26083ft 204kts
14-Jul-20 15:56 38.771314 -118.710421 318 26059ft 244kts
14-Jul-20 15:57 38.823083 -118.772652 318 26048ft 262kts
14-Jul-20 15:58 38.877085 -118.837689 318 26044ft 268kts
14-Jul-20 15:59 38.931599 -118.903481 318 26041ft 270kts
14-Jul-20 16:00 38.985965 -118.969497 317 26039ft 268kts
14-Jul-20 16:01 39.039445 -119.036100 317 26039ft 267kts
14-Jul-20 16:02 39.092719 -119.102637 318 26049ft 266kts
14-Jul-20 16:03 39.145954 -119.169268 318 26077ft 267kts
14-Jul-20 16:04 39.199260 -119.236142 318 26090ft 267kts
14-Jul-20 16:05 39.252381 -119.302954 318 26101ft 267kts
14-Jul-20 16:06 39.305553 -119.369943 318 26102ft 267kts
14-Jul-20 16:07 39.358579 -119.436910 318 26100ft 266kts
14-Jul-20 16:08 39.408682 -119.507532 301 26093ft 273kts
14-Jul-20 16:09 39.418574 -119.607986 286 26094ft 283kts
14-Jul-20 16:10 39.431108 -119.708327 287 26095ft 282kts
14-Jul-20 16:11 39.444227 -119.808457 287 26104ft 282kts
14-Jul-20 16:12 39.457280 -119.908457 287 26134ft 281kts
14-Jul-20 16:13 39.470217 -120.008413 287 26159ft 281kts
14-Jul-20 16:14 39.483095 -120.108552 287 26176ft 282kts
14-Jul-20 16:15 39.495909 -120.208879 287 26197ft 282kts
14-Jul-20 16:16 39.508630 -120.309251 287 26211ft 282kts
14-Jul-20 16:17 39.521276 -120.409704 287 26214ft 283kts
14-Jul-20 16:18 39.533872 -120.510515 287 26216ft 283kts
14-Jul-20 16:19 39.546396 -120.611461 286 26207ft 284kts
14-Jul-20 16:20 39.558885 -120.712808 286 26210ft 284kts
14-Jul-20 16:21 39.571306 -120.814475 285 26161ft 286kts
14-Jul-20 16:22 39.583654 -120.916230 285 26098ft 286kts
14-Jul-20 16:23 39.595950 -121.018400 285 26049ft 285kts
14-Jul-20 16:24 39.608101 -121.120061 285 26011ft 285kts
14-Jul-20 16:25 39.620153 -121.221732 285 25964ft 285kts
14-Jul-20 16:26 39.632155 -121.323697 285 25932ft 285kts
14-Jul-20 16:27 39.644349 -121.428340 285 25065ft 299kts
14-Jul-20 16:28 39.656771 -121.535732 286 24046ft 303kts
14-Jul-20 16:29 39.668861 -121.640966 286 23899ft 285kts
14-Jul-20 16:30 39.680430 -121.742212 286 23429ft 292kts
14-Jul-20 16:31 39.692325 -121.847662 285 22228ft 294kts
14-Jul-20 16:32 39.704071 -121.952515 285 21015ft 293kts
14-Jul-20 16:33 39.715750 -122.057519 285 19692ft 296kts
14-Jul-20 16:34 39.727523 -122.164474 285 17970ft 298kts
14-Jul-20 16:35 39.739145 -122.270743 284 16235ft 296kts
14-Jul-20 16:36 39.740937 -122.377767 273 14500ft 297kts
14-Jul-20 16:37 39.736761 -122.484633 274 12765ft 294kts
14-Jul-20 16:38 39.731856 -122.588005 260 11984ft 279kts
14-Jul-20 16:39 39.706533 -122.680474 246 12006ft 273kts
14-Jul-20 16:40 39.668703 -122.765636 247 11935ft 274kts
14-Jul-20 16:41 39.631117 -122.854163 247 11074ft 277kts
14-Jul-20 16:42 39.595767 -122.940193 247 9850ft 266kts
14-Jul-20 16:43 39.581796 -123.027304 289 8617ft 247kts
14-Jul-20 16:44 39.618094 -123.099830 313 7401ft 238kts
14-Jul-20 16:45 39.661060 -123.158025 340 6141ft 210kts
14-Jul-20 16:46 39.712663 -123.176319 345 5620ft 179kts
14-Jul-20 16:47 39.757292 -123.189181 355 4563ft 163kts
14-Jul-20 16:48 39.783181 -123.211367 266 3348ft 111kts
14-Jul-20 16:49 39.783346 -123.246210 298 1851ft 92kts
14-Jul-20 16:50 39.791212 -123.268615 288 1427ft 17kts
14-Jul-20 16:51 39.792128 -123.271487 181 1432ft 0kts
14-Jul-20 16:52 39.791959 -123.270971 108 1432ft 0kts
14-Jul-20 16:53 39.791958 -123.270971 108 1432ft 0kts
14-Jul-20 16:54 39.791958 -123.270971 108 1432ft 0kts
14-Jul-20 16:55 39.791958 -123.270971 108 1432ft 0kts
14-Jul-20 16:56 39.791958 -123.270971 108 1432ft 0kts
14-Jul-20 16:57 39.791958 -123.270971 108 1432ft 0kts
14-Jul-20 16:58 39.791958 -123.270971 108 1432ft 0kts
14-Jul-20 16:59 39.791958 -123.270971 108 1432ft 0kts
14-Jul-20 17:00 39.791958 -123.270971 108 1432ft 0kts
14-Jul-20 17:01 39.791958 -123.270971 108 1432ft 0kts
14-Jul-20 17:02 39.791958 -123.270971 108 1432ft 0kts
14-Jul-20 17:03 39.791958 -123.270971 108 1432ft 0kts
14-Jul-20 17:04 39.791958 -123.270971 108 1432ft 0kts

Navigation Log

Ident Type
Flight plan parsing failed, navigation log unavailable